Paulatuk, Northwest Territories

11:11 PM MDT on August 27, 2016 (GMT -0600)
Cape Parry | | Change Station

Elev 282 ft 70.17 °N, 124.72 °W | Updated 11 minutes ago

Overcast
Overcast
41 °F
Feels Like 41 °F
N
0
Wind Variable Wind from North

Today
High -- | Low -- °F
--% Chance of Precip.
Yesterday
High -- | Low -- °F
Precip. -- in
Pressure 30.35 in
Visibility 3.0 miles
Clouds Overcast 1500 ft
Dew Point 39 °F
Humidity 93%
Rainfall 0.00 in
Snow Depth Not available.
6:17 AM 10:14 PM
Waning Crescent, 18% visible
METAR CZCP 280500Z AUTO 00000KT 3SM //// OVC015 05/04 A3035
Pressure 30.35 in
Visibility 3.0 miles
Clouds Overcast 1500 ft
Dew Point 39 °F
Humidity 93%
Rainfall 0.00 in
Snow Depth Not available.
6:17 AM 10:14 PM
Waning Crescent, 18% visible
METAR CZCP 280500Z AUTO 00000KT 3SM //// OVC015 05/04 A3035

10-Day Weather Forecast

No radar image for this location.
×

Almanac

Astronomy

Aug. 27, 2016 Rise Set
Actual Time
Civil Twilight
Nautical Twilight
Astronomical Twilight
Moon
Length of Visible Light
Length of Day
Tomorrow will be .
, % of the Moon is Illuminated

Today's Extremes

Country Highs Country Lows

Community

WunderPhotos

Upload Photos

1,935,531 photos uploaded!

WunderBlog® & News

Nearby

Air Quality

  Air Quality AQ Index Pollutant
Not available.

Snow Depth

Station Depth Elevation

Earthquake Activity

City Distance Mag. Time & Date
Minimum magnitude displayed is 2.5.

Coastal Water Temperatures

Place Temperature

Stations

Nearby Weather Stations

Station Location Temp. Windchill Dew Point Humidity Wind Precip. Elev Updated Type
                   

Watches & Warnings

There are currently no watches in effect.